createdAt,value
2019-05-28T00:02:59.457Z,100076.35
2019-05-28T00:07:03.213Z,100077.78
2019-05-28T00:11:07.039Z,100075.97
2019-05-28T00:15:11.010Z,100069.57
2019-05-28T00:19:14.642Z,100071.48
2019-05-28T00:23:18.255Z,100068.61
2019-05-28T00:27:21.752Z,100067.23
2019-05-28T00:31:25.263Z,100062.69
2019-05-28T00:35:29.117Z,100062.55
2019-05-28T00:39:32.609Z,100052.99
2019-05-28T00:43:36.735Z,100052.99
2019-05-28T00:47:40.441Z,100055.62
2019-05-28T00:51:44.367Z,100047.40
2019-05-28T00:55:48.994Z,100049.50
2019-05-28T00:59:53.326Z,100040.89
2019-05-28T01:03:56.810Z,100041.22
2019-05-28T01:08:00.695Z,100039.28
2019-05-28T01:12:04.326Z,100040.38
2019-05-28T01:16:07.797Z,100034.13
2019-05-28T01:20:11.458Z,100027.47
2019-05-28T01:24:14.950Z,100032.38
2019-05-28T01:28:18.435Z,100033.44
2019-05-28T01:32:22.279Z,100031.06
2019-05-28T01:36:26.332Z,100035.12
2019-05-28T01:40:29.813Z,100038.09
2019-05-28T01:44:33.301Z,100036.05
2019-05-28T01:48:37.140Z,100040.87
2019-05-28T01:52:40.613Z,100041.01
2019-05-28T01:56:44.119Z,100045.91
2019-05-28T02:00:47.577Z,100036.55
2019-05-28T02:04:51.128Z,100044.42
2019-05-28T02:08:54.611Z,100045.04
2019-05-28T02:12:58.094Z,100050.51
2019-05-28T02:17:01.591Z,100049.91
2019-05-28T02:21:05.078Z,100046.95
2019-05-28T02:25:09.300Z,100048.59
2019-05-28T02:29:12.791Z,100045.98
2019-05-28T02:33:16.586Z,100043.28
2019-05-28T02:37:20.079Z,100045.92
2019-05-28T02:41:23.575Z,100051.55
2019-05-28T02:45:28.324Z,100053.17
2019-05-28T02:49:32.096Z,100047.47
2019-05-28T02:53:36.132Z,100044.91
2019-05-28T02:57:42.957Z,100052.08
2019-05-28T03:01:48.541Z,100049.38
2019-05-28T03:05:54.546Z,100051.55
2019-05-28T03:10:00.667Z,100044.50
2019-05-28T03:14:05.019Z,100045.92
2019-05-28T03:18:11.357Z,100047.69
2019-05-28T03:22:17.689Z,100052.77
2019-05-28T03:26:23.612Z,100052.50
2019-05-28T03:30:26.461Z,100054.33
2019-05-28T03:34:30.250Z,100054.73
2019-05-28T03:38:35.120Z,100057.58
2019-05-28T03:42:38.668Z,100056.97
2019-05-28T03:46:42.114Z,100060.70
2019-05-28T03:50:45.603Z,100066.87
2019-05-28T03:54:49.100Z,100067.27
2019-05-28T03:58:52.589Z,100067.27
2019-05-28T04:02:58.854Z,100064.90
2019-05-28T04:07:02.348Z,100063.48
2019-05-28T04:11:05.828Z,100061.72
2019-05-28T04:15:12.316Z,100066.71
2019-05-28T04:19:15.875Z,100068.16
2019-05-28T04:23:19.674Z,100063.55
2019-05-28T04:27:23.170Z,100062.16
2019-05-28T04:31:26.655Z,100069.80
2019-05-28T04:35:30.155Z,100078.48
2019-05-28T04:39:35.511Z,100081.99
2019-05-28T04:43:39.174Z,100082.67
2019-05-28T04:47:42.691Z,100090.03
2019-05-28T04:51:46.204Z,100091.04
2019-05-28T04:55:49.691Z,100090.30
2019-05-28T04:59:53.528Z,100097.98
2019-05-28T05:03:57.023Z,100095.89
2019-05-28T05:08:00.585Z,100093.27
2019-05-28T05:12:04.266Z,100093.69
2019-05-28T05:16:07.736Z,100095.38
2019-05-28T05:20:11.764Z,100099.91
2019-05-28T05:24:16.117Z,100099.44
2019-05-28T05:28:19.602Z,100110.28
2019-05-28T05:32:23.085Z,100109.84
2019-05-28T05:36:26.565Z,100101.30
2019-05-28T05:40:30.525Z,100104.95
2019-05-28T05:44:34.299Z,100101.42
2019-05-28T05:48:37.813Z,100102.46
2019-05-28T05:52:41.310Z,100105.05
2019-05-28T05:56:44.794Z,100114.45
2019-05-28T06:00:48.288Z,100100.73
2019-05-28T06:04:52.066Z,100097.30
2019-05-28T06:08:55.564Z,100105.89
2019-05-28T06:12:59.496Z,100113.67
2019-05-28T06:17:03.091Z,100107.64
2019-05-28T06:21:14.321Z,100102.79
2019-05-28T06:25:12.413Z,100120.11
2019-05-28T06:29:15.961Z,100114.33
2019-05-28T06:33:19.461Z,100111.49
2019-05-28T06:37:22.936Z,100112.70
2019-05-28T06:41:26.709Z,100114.55
2019-05-28T06:45:30.974Z,100125.47
2019-05-28T06:49:34.488Z,100125.47
2019-05-28T06:53:37.978Z,100127.39
2019-05-28T06:57:41.756Z,100123.80
2019-05-28T07:01:45.431Z,100130.90
2019-05-28T07:06:05.464Z,100124.02
2019-05-28T07:09:54.240Z,100117.98
2019-05-28T07:13:57.740Z,100120.98
2019-05-28T07:18:01.238Z,100124.33
2019-05-28T07:22:05.243Z,100124.33
2019-05-28T07:26:08.741Z,100134.00
2019-05-28T07:30:14.075Z,100134.53
2019-05-28T07:34:30.434Z,100133.53
2019-05-28T07:38:22.901Z,100133.06
2019-05-28T07:42:32.750Z,100136.60
2019-05-28T07:46:32.966Z,100140.11
2019-05-28T07:50:36.450Z,100141.50
2019-05-28T07:54:39.972Z,100143.42
2019-05-28T07:58:43.542Z,100133.80
2019-05-28T08:02:47.263Z,100131.73
2019-05-28T08:06:54.721Z,100129.16
2019-05-28T08:10:56.289Z,100140.45
2019-05-28T08:14:59.915Z,100140.95
2019-05-28T08:19:03.414Z,100143.19
2019-05-28T08:23:07.738Z,100130.73
2019-05-28T08:27:11.490Z,100139.67
2019-05-28T08:31:20.126Z,100134.29
2019-05-28T08:35:20.311Z,100142.97
2019-05-28T08:39:23.799Z,100144.20
2019-05-28T08:43:27.434Z,100143.59
2019-05-28T08:47:31.270Z,100153.18
2019-05-28T08:51:34.771Z,100148.06
2019-05-28T08:55:39.737Z,100142.58
2019-05-28T08:59:43.566Z,100141.39
2019-05-28T09:03:47.145Z,100139.31
2019-05-28T09:07:50.645Z,100142.98
2019-05-28T09:11:54.500Z,100147.05
2019-05-28T09:16:00.075Z,100155.77
2019-05-28T09:20:05.201Z,100154.77
2019-05-28T09:24:08.680Z,100143.02
2019-05-28T09:28:28.510Z,100144.18
2019-05-28T09:32:17.400Z,100131.86
2019-05-28T09:36:21.295Z,100141.05
2019-05-28T09:40:24.862Z,100148.22
2019-05-28T09:44:28.340Z,100152.22
2019-05-28T09:48:31.813Z,100142.84
2019-05-28T09:52:50.699Z,100137.81
2019-05-28T09:56:40.545Z,100155.30
2019-05-28T10:00:57.281Z,100159.33
2019-05-28T10:04:50.207Z,100162.81
2019-05-28T10:08:53.830Z,100159.78
2019-05-28T10:12:58.489Z,100154.88
2019-05-28T10:17:01.981Z,100152.63
2019-05-28T10:21:17.704Z,100165.34
2019-05-28T10:25:12.367Z,100180.23
2019-05-28T10:29:16.275Z,100181.17
2019-05-28T10:33:19.762Z,100185.17
2019-05-28T10:37:23.331Z,100186.19
2019-05-28T10:41:26.802Z,100195.22
2019-05-28T10:45:30.423Z,100189.91
2019-05-28T10:49:34.114Z,100204.80
2019-05-28T10:53:38.061Z,100209.27
2019-05-28T10:57:41.877Z,100204.94
2019-05-28T11:01:45.514Z,100205.78
2019-05-28T11:05:49.050Z,100200.77
2019-05-28T11:09:52.927Z,100202.48
2019-05-28T11:13:57.162Z,100209.45
2019-05-28T11:18:00.713Z,100212.14
2019-05-28T11:22:04.529Z,100210.09
2019-05-28T11:26:08.074Z,100209.59
2019-05-28T11:30:13.439Z,100210.54
2019-05-28T11:34:17.274Z,100206.89
2019-05-28T11:38:21.100Z,100208.28
2019-05-28T11:42:25.832Z,100215.62
2019-05-28T11:46:30.968Z,100210.88
2019-05-28T11:50:34.746Z,100206.66
2019-05-28T11:54:38.261Z,100206.78
2019-05-28T11:58:41.765Z,100211.89
2019-05-28T12:02:45.334Z,100210.69
2019-05-28T12:06:48.842Z,100211.93
2019-05-28T12:10:52.322Z,100219.22
2019-05-28T12:14:55.805Z,100213.93
2019-05-28T12:18:59.314Z,100214.91
2019-05-28T12:23:11.294Z,100217.47
2019-05-28T12:27:08.420Z,100218.83
2019-05-28T12:31:11.930Z,100217.25
2019-05-28T12:35:28.267Z,100214.45
2019-05-28T12:39:23.738Z,100218.84
2019-05-28T12:43:30.024Z,100219.61
2019-05-28T12:47:33.549Z,100225.88
2019-05-28T12:51:37.027Z,100219.08
2019-05-28T12:55:40.531Z,100221.25
2019-05-28T12:59:44.024Z,100221.02
2019-05-28T13:03:51.589Z,100226.09
2019-05-28T13:08:07.226Z,100228.78
2019-05-28T13:11:58.091Z,100223.23
2019-05-28T13:16:03.119Z,100224.46
2019-05-28T13:20:08.062Z,100237.75
2019-05-28T13:24:11.578Z,100237.95
2019-05-28T13:28:15.474Z,100236.56
2019-05-28T13:32:19.028Z,100241.19
2019-05-28T13:36:22.512Z,100250.44
2019-05-28T13:40:26.149Z,100250.22
2019-05-28T13:44:29.922Z,100256.61
2019-05-28T13:48:33.531Z,100259.94
2019-05-28T13:52:37.103Z,100249.17
2019-05-28T13:56:40.877Z,100253.09
2019-05-28T14:00:44.474Z,100263.44
2019-05-28T14:04:47.966Z,100256.20
2019-05-28T14:08:51.459Z,100258.67
2019-05-28T14:12:55.178Z,100262.44
2019-05-28T14:16:58.822Z,100268.06
2019-05-28T14:21:02.309Z,100266.42
2019-05-28T14:25:07.945Z,100276.92
2019-05-28T14:29:11.441Z,100269.93
2019-05-28T14:33:15.284Z,100283.30
2019-05-28T14:37:18.767Z,100292.10
2019-05-28T14:41:22.255Z,100301.58
2019-05-28T14:45:27.876Z,100304.22
2019-05-28T14:49:32.148Z,100299.48
2019-05-28T14:53:36.001Z,100308.16
2019-05-28T14:57:39.621Z,100320.08
2019-05-28T15:01:43.091Z,100319.02
2019-05-28T15:05:46.921Z,100324.01
2019-05-28T15:09:50.421Z,100322.27
2019-05-28T15:13:54.380Z,100332.84
2019-05-28T15:17:59.442Z,100339.16
2019-05-28T15:22:02.963Z,100340.80
2019-05-28T15:26:06.714Z,100349.30
2019-05-28T15:30:14.556Z,100345.61
2019-05-28T15:34:18.048Z,100332.78
2019-05-28T15:38:21.881Z,100344.99
2019-05-28T15:42:25.367Z,100354.39
2019-05-28T15:46:29.177Z,100357.26
2019-05-28T15:50:32.664Z,100360.91
2019-05-28T15:54:36.207Z,100362.34
2019-05-28T15:58:39.687Z,100372.83
2019-05-28T16:02:43.173Z,100368.42
2019-05-28T16:06:46.725Z,100377.00
2019-05-28T16:10:50.581Z,100384.16
2019-05-28T16:14:54.085Z,100380.88
2019-05-28T16:18:58.094Z,100394.02
2019-05-28T16:23:01.942Z,100403.64
2019-05-28T16:27:05.763Z,100402.82
2019-05-28T16:31:12.942Z,100409.02
2019-05-28T16:35:16.355Z,100405.58
2019-05-28T16:39:19.848Z,100414.03
2019-05-28T16:43:23.345Z,100412.75
2019-05-28T16:47:26.844Z,100420.55
2019-05-28T16:51:30.400Z,100420.88
2019-05-28T16:55:34.229Z,100421.66
2019-05-28T16:59:38.004Z,100426.72
2019-05-28T17:03:41.496Z,100431.47
2019-05-28T17:07:45.469Z,100430.38
2019-05-28T17:11:49.001Z,100436.45
2019-05-28T17:15:52.657Z,100433.84
2019-05-28T17:19:56.496Z,100442.86
2019-05-28T17:24:02.966Z,100449.69
2019-05-28T17:28:06.433Z,100450.91
2019-05-28T17:32:10.194Z,100454.97
2019-05-28T17:36:14.103Z,100463.47
2019-05-28T17:40:21.646Z,100466.56
2019-05-28T17:44:23.138Z,100469.84
2019-05-28T17:48:27.161Z,100471.16
2019-05-28T17:52:31.079Z,100482.25
2019-05-28T17:56:34.897Z,100488.56
2019-05-28T18:00:38.657Z,100503.55
2019-05-28T18:04:42.150Z,100511.73
2019-05-28T18:08:45.641Z,100509.13
2019-05-28T18:12:49.133Z,100511.95
2019-05-28T18:16:53.392Z,100523.68
2019-05-28T18:20:57.193Z,100530.67
2019-05-28T18:25:00.683Z,100538.18
2019-05-28T18:29:04.634Z,100544.12
2019-05-28T18:33:08.171Z,100547.58
2019-05-28T18:37:12.007Z,100554.57
2019-05-28T18:41:21.700Z,100564.86
2019-05-28T18:45:21.649Z,100575.83
2019-05-28T18:49:25.210Z,100577.60
2019-05-28T18:53:28.700Z,100583.88
2019-05-28T18:57:32.491Z,100597.77
2019-05-28T19:01:36.408Z,100599.16
2019-05-28T19:05:40.185Z,100598.53
2019-05-28T19:09:44.189Z,100611.46
2019-05-28T19:13:47.681Z,100627.11
2019-05-28T19:17:51.621Z,100632.74
2019-05-28T19:21:55.113Z,100640.30
2019-05-28T19:25:58.638Z,100654.94
2019-05-28T19:30:02.322Z,100671.72
2019-05-28T19:34:06.343Z,100676.91
2019-05-28T19:38:11.726Z,100685.33
2019-05-28T19:42:15.228Z,100689.83
2019-05-28T19:46:18.736Z,100701.81
2019-05-28T19:50:22.292Z,100707.32
2019-05-28T19:54:25.778Z,100709.17
2019-05-28T19:58:29.346Z,100713.95
2019-05-28T20:02:33.291Z,100716.47
2019-05-28T20:06:36.890Z,100728.59
2019-05-28T20:10:40.801Z,100729.34
2019-05-28T20:14:44.304Z,100729.44
2019-05-28T20:18:49.343Z,100731.42
2019-05-28T20:22:54.026Z,100743.62
2019-05-28T20:26:57.566Z,100740.52
2019-05-28T20:31:01.819Z,100748.66
2019-05-28T20:35:09.789Z,100751.47
2019-05-28T20:39:13.297Z,100760.19
2019-05-28T20:43:16.772Z,100769.80
2019-05-28T20:47:20.284Z,100781.13
2019-05-28T20:51:23.853Z,100786.42
2019-05-28T20:55:27.331Z,100789.00
2019-05-28T20:59:31.108Z,100793.11
2019-05-28T21:03:34.601Z,100797.55
2019-05-28T21:07:39.199Z,100808.78
2019-05-28T21:11:44.101Z,100817.20
2019-05-28T21:15:48.575Z,100824.45
2019-05-28T21:19:53.200Z,100825.52
2019-05-28T21:23:57.851Z,100834.86
2019-05-28T21:28:01.384Z,100843.51
2019-05-28T21:32:04.935Z,100863.62
2019-05-28T21:36:08.466Z,100867.58
2019-05-28T21:40:13.716Z,100868.36
2019-05-28T21:44:17.196Z,100876.97
2019-05-28T21:48:21.076Z,100879.72
2019-05-28T21:52:24.568Z,100889.16
2019-05-28T21:56:28.151Z,100895.11
2019-05-28T22:00:42.006Z,100903.35
2019-05-28T22:04:45.889Z,100902.91
2019-05-28T22:08:49.358Z,100900.42
2019-05-28T22:12:52.860Z,100905.92
2019-05-28T22:16:59.360Z,100914.86
2019-05-28T22:21:02.533Z,100922.00
2019-05-28T22:25:07.334Z,100931.70
2019-05-28T22:29:11.195Z,100936.70
2019-05-28T22:33:14.818Z,100942.58
2019-05-28T22:37:18.305Z,100949.78
2019-05-28T22:41:21.802Z,100949.99
2019-05-28T22:45:25.598Z,100950.09
2019-05-28T22:49:29.471Z,100957.04
2019-05-28T22:53:33.007Z,100959.97
2019-05-28T22:57:36.557Z,100967.52
2019-05-28T23:01:40.055Z,100972.25
2019-05-28T23:05:43.867Z,100975.22
2019-05-28T23:09:47.476Z,100980.70
2019-05-28T23:13:50.974Z,100992.96
2019-05-28T23:17:54.455Z,100989.31
2019-05-28T23:21:58.225Z,101002.08
2019-05-28T23:26:01.745Z,101006.13
2019-05-28T23:30:21.290Z,101012.24
2019-05-28T23:34:14.604Z,101015.45
2019-05-28T23:38:18.078Z,101024.53
2019-05-28T23:42:21.553Z,101031.42
2019-05-28T23:46:25.026Z,101035.08
2019-05-28T23:50:28.574Z,101041.15
2019-05-28T23:54:32.100Z,101045.93
2019-05-28T23:58:35.583Z,101045.20
